New Yoshino — JG5527 — position and weather

sailwx.info

Track history (hours):
 
Tides and Currents Weather Stations Pressure Air Temp Water Temp Dewpoint Dewpoint Depression Visibility Wind Speed Wind Dir Waves Ship Positions

New Yoshino

Last reported at 2014-Oct-20 14:23 UTC. Time now 2014-Oct-23 05:13 UTC.
Position N 35°06' E 139°44'.

Length 102 m; draft 6.3 m.

Type: Tanker. MMSI: 431300724.

Date/timePositionNaut miles runAvg speedWind from/ knotsBaromVisibWave heightAir tempDewpointWater temp
2014-Oct-20 14:23N 35°06' E 139°44'1112.7
2014-Oct-20 13:32N 35°16' E 139°46'1010.2
2014-Oct-20 12:34N 35°26' E 139°46'1211.2
2014-Oct-20 11:30N 35°29' E 140°00'0 0.1
2014-Oct-20 05:13N 35°29' E 140°01'4 0.4
2014-Oct-19 19:25N 35°33' E 140°02'2 0.1
2014-Oct-19 05:27N 35°32' E 139°60'1213.1
2014-Oct-19 04:33N 35°25' E 139°48'1111.0
2014-Oct-19 03:33N 35°15' E 139°47'3 0.1
2014-Oct-17 06:30N 35°17' E 139°45'1010.9
2014-Oct-17 05:34N 35°27' E 139°45'2 1.5
2014-Oct-17 04:32N 35°29' E 139°46'2 1.1
2014-Oct-17 03:05N 35°30' E 139°45'0 0.0
2014-Oct-17 02:29N 35°30' E 139°45'0 0.0
2014-Oct-17 01:17N 35°30' E 139°45'0 0.0
2014-Oct-17 00:29N 35°30' E 139°45'1 1.1
2014-Oct-16 23:33N 35°30' E 139°44'9 8.9
2014-Oct-16 22:33N 35°21' E 139°45'1212.3
2014-Oct-16 21:33N 35°09' E 139°46'  
Track history (hours):
 
Tides and Currents Weather Stations Pressure Air Temp Water Temp Dewpoint Dewpoint Depression Visibility Wind Speed Wind Dir Waves Ship Positions

New Yoshino

Last reported at 2014-Oct-20 14:23 UTC. Time now 2014-Oct-23 05:13 UTC.
Position N 35°06' E 139°44'.

Length 102 m; draft 6.3 m.

Type: Tanker. MMSI: 431300724.

Date/timePositionNaut miles runAvg speedWind from/ knotsBaromVisibWave heightAir tempDewpointWater temp
2014-Oct-20 14:23N 35°06' E 139°44'1112.7
2014-Oct-20 13:32N 35°16' E 139°46'1010.2
2014-Oct-20 12:34N 35°26' E 139°46'1211.2
2014-Oct-20 11:30N 35°29' E 140°00'0 0.1
2014-Oct-20 05:13N 35°29' E 140°01'4 0.4
2014-Oct-19 19:25N 35°33' E 140°02'2 0.1
2014-Oct-19 05:27N 35°32' E 139°60'1213.1
2014-Oct-19 04:33N 35°25' E 139°48'1111.0
2014-Oct-19 03:33N 35°15' E 139°47'3 0.1
2014-Oct-17 06:30N 35°17' E 139°45'1010.9
2014-Oct-17 05:34N 35°27' E 139°45'2 1.5
2014-Oct-17 04:32N 35°29' E 139°46'2 1.1
2014-Oct-17 03:05N 35°30' E 139°45'0 0.0
2014-Oct-17 02:29N 35°30' E 139°45'0 0.0
2014-Oct-17 01:17N 35°30' E 139°45'0 0.0
2014-Oct-17 00:29N 35°30' E 139°45'1 1.1
2014-Oct-16 23:33N 35°30' E 139°44'9 8.9
2014-Oct-16 22:33N 35°21' E 139°45'1212.3
2014-Oct-16 21:33N 35°09' E 139°46'  

Dump ship's entire track history